Terminal Aerodrome Forecast
Issued by NWS

Home | Current Version | Previous Version | Text Only | Print | Product List | Glossary On
Versions: 1 2 3 4 5 6 7 8 9 10 11 12 13 14 15 16 17 18 19 20 21 22 23 24 25 26 27 28 29 30 31 32 33 34 35 36 37 38 39 40 41 42 43 44 45 46 47 48 49 50
000
FTUS43 KMKX 232109 AAB
TAFUES
TAF AMD
KUES 232109Z 2321/2418 16006KT 6SM -SHRA VCTS SCT025CB BKN035
     FM232300 13006KT P6SM VCTS OVC040CB
     FM240100 VRB03KT 5SM SHRA VCTS OVC040CB
     FM240400 VRB03KT P6SM VCTS OVC045CB
     FM241000 19005KT P6SM OVC040
     FM241700 23010G20KT P6SM SCT050=

USA.gov is the U.S. government's official web portal to all federal, state and local government web resources and services.